createdAt,value
2022-11-05T00:02:19.274Z,6.97
2022-11-05T00:05:04.163Z,7.68
2022-11-05T00:07:55.128Z,7.55
2022-11-05T00:10:28.612Z,7.15
2022-11-05T00:13:14.473Z,8.40
2022-11-05T00:15:59.358Z,8.27
2022-11-05T00:18:25.742Z,7.40
2022-11-05T00:20:52.130Z,6.47
2022-11-05T00:23:37.199Z,7.68
2022-11-05T00:26:05.498Z,8.40
2022-11-05T00:28:32.081Z,7.93
2022-11-05T00:31:02.654Z,8.63
2022-11-05T00:33:29.048Z,8.50
2022-11-05T00:35:55.613Z,8.63
2022-11-05T00:38:21.926Z,8.15
2022-11-05T00:40:48.257Z,8.50
2022-11-05T00:43:33.260Z,8.30
2022-11-05T00:45:59.648Z,8.60
2022-11-05T00:48:44.302Z,9.38
2022-11-05T00:51:10.617Z,6.45
2022-11-05T00:53:36.990Z,7.75
2022-11-05T00:56:03.407Z,7.90
2022-11-05T00:58:29.732Z,7.63
2022-11-05T01:00:57.246Z,8.38
2022-11-05T01:05:51.084Z,7.93
2022-11-05T01:10:44.788Z,7.43
2022-11-05T01:15:40.118Z,7.05
2022-11-05T01:18:06.410Z,7.53
2022-11-05T01:20:32.784Z,7.72
2022-11-05T01:22:59.174Z,7.15
2022-11-05T01:25:25.846Z,8.25
2022-11-05T01:27:52.168Z,7.97
2022-11-05T01:30:18.546Z,8.40
2022-11-05T01:32:45.124Z,8.38
2022-11-05T01:35:13.172Z,9.25
2022-11-05T01:37:39.853Z,7.70
2022-11-05T01:40:07.668Z,7.78
2022-11-05T01:42:34.636Z,8.68
2022-11-05T01:45:03.245Z,9.53
2022-11-05T01:47:36.162Z,9.77
2022-11-05T01:50:05.614Z,8.48
2022-11-05T01:52:34.645Z,8.93
2022-11-05T01:55:01.923Z,8.43
2022-11-05T01:57:28.753Z,10.13
2022-11-05T01:59:57.759Z,9.43
2022-11-05T02:02:25.468Z,8.45
2022-11-05T02:04:54.034Z,8.20
2022-11-05T02:07:21.011Z,7.97
2022-11-05T02:09:59.617Z,10.35
2022-11-05T02:12:26.692Z,7.72
2022-11-05T02:14:53.085Z,6.72
2022-11-05T02:17:22.540Z,7.93
2022-11-05T02:19:55.005Z,7.85
2022-11-05T02:22:24.579Z,7.90
2022-11-05T02:24:56.662Z,7.40
2022-11-05T02:27:22.982Z,6.90
2022-11-05T02:30:04.809Z,8.05
2022-11-05T02:32:31.638Z,7.18
2022-11-05T02:35:00.930Z,8.30
2022-11-05T02:37:37.081Z,7.63
2022-11-05T02:40:10.824Z,7.78
2022-11-05T02:42:38.127Z,6.97
2022-11-05T02:45:14.984Z,7.18
2022-11-05T02:47:41.719Z,7.85
2022-11-05T02:50:08.087Z,7.33
2022-11-05T02:52:40.732Z,7.20
2022-11-05T02:55:14.241Z,7.75
2022-11-05T02:57:43.872Z,6.63
2022-11-05T03:00:29.004Z,7.40
2022-11-05T03:02:55.502Z,6.95
2022-11-05T03:05:26.656Z,6.03
2022-11-05T03:07:56.155Z,5.82
2022-11-05T03:11:00.974Z,5.68
2022-11-05T03:13:32.989Z,6.00
2022-11-05T03:16:02.335Z,5.35
2022-11-05T03:18:31.400Z,5.05
2022-11-05T03:21:00.716Z,5.60
2022-11-05T03:23:39.749Z,4.75
2022-11-05T03:26:17.629Z,4.60
2022-11-05T03:28:46.354Z,4.63
2022-11-05T03:31:13.809Z,4.90
2022-11-05T03:33:41.586Z,4.57
2022-11-05T03:36:11.055Z,4.35
2022-11-05T03:38:39.662Z,4.75
2022-11-05T03:41:07.785Z,4.82
2022-11-05T03:43:35.717Z,4.80
2022-11-05T03:46:05.037Z,4.32
2022-11-05T03:48:32.878Z,4.72
2022-11-05T03:51:02.642Z,5.30
2022-11-05T03:53:30.358Z,5.13
2022-11-05T03:56:01.167Z,5.07
2022-11-05T03:58:28.670Z,4.90
2022-11-05T04:00:55.111Z,4.55
2022-11-05T04:03:21.471Z,4.78
2022-11-05T04:06:08.052Z,5.00
2022-11-05T04:08:52.865Z,4.85
2022-11-05T04:11:37.795Z,5.28
2022-11-05T04:14:06.765Z,4.70
2022-11-05T04:16:51.836Z,5.55
2022-11-05T04:19:38.653Z,4.82
2022-11-05T04:22:23.547Z,4.55
2022-11-05T04:24:49.897Z,4.72
2022-11-05T04:27:16.179Z,4.85
2022-11-05T04:30:01.082Z,4.65
2022-11-05T04:32:27.447Z,5.63
2022-11-05T04:34:53.941Z,4.82
2022-11-05T04:37:20.231Z,4.97
2022-11-05T04:39:46.609Z,5.22
2022-11-05T04:42:13.932Z,4.57
2022-11-05T04:44:40.247Z,4.80
2022-11-05T04:47:06.545Z,4.65
2022-11-05T04:49:32.911Z,4.60
2022-11-05T04:51:59.340Z,5.03
2022-11-05T04:54:25.680Z,5.50
2022-11-05T04:56:52.040Z,4.90
2022-11-05T04:59:18.340Z,4.50
2022-11-05T05:01:44.682Z,4.97
2022-11-05T05:04:11.180Z,5.53
2022-11-05T05:06:38.420Z,5.03
2022-11-05T05:09:04.846Z,5.57
2022-11-05T05:11:31.175Z,5.97
2022-11-05T05:13:57.487Z,7.43
2022-11-05T05:16:25.017Z,6.97
2022-11-05T05:18:51.858Z,6.75
2022-11-05T05:21:37.564Z,7.43
2022-11-05T05:24:04.656Z,7.80
2022-11-05T05:26:31.227Z,9.60
2022-11-05T05:28:57.611Z,9.13
2022-11-05T05:31:24.078Z,9.43
2022-11-05T05:33:53.242Z,8.65
2022-11-05T05:36:19.654Z,9.38
2022-11-05T05:38:46.050Z,10.40
2022-11-05T05:41:12.476Z,9.60
2022-11-05T05:43:38.812Z,9.65
2022-11-05T05:46:06.172Z,9.90
2022-11-05T05:48:32.445Z,8.20
2022-11-05T05:51:09.403Z,8.40
2022-11-05T05:53:36.028Z,9.00
2022-11-05T05:56:02.910Z,9.02
2022-11-05T05:58:36.758Z,9.25
2022-11-05T06:01:05.584Z,10.38
2022-11-05T06:03:32.136Z,9.73
2022-11-05T06:05:59.965Z,8.65
2022-11-05T06:08:26.375Z,9.13
2022-11-05T06:10:52.873Z,9.27
2022-11-05T06:13:19.277Z,8.00
2022-11-05T06:15:45.873Z,9.17
2022-11-05T06:18:12.371Z,9.02
2022-11-05T06:20:38.698Z,8.73
2022-11-05T06:23:05.119Z,8.10
2022-11-05T06:25:31.482Z,9.77
2022-11-05T06:27:57.948Z,9.90
2022-11-05T06:30:24.314Z,9.20
2022-11-05T06:32:50.777Z,10.48
2022-11-05T06:35:17.259Z,9.98
2022-11-05T06:37:43.546Z,11.35
2022-11-05T06:40:09.979Z,10.65
2022-11-05T06:42:36.272Z,9.93
2022-11-05T06:45:03.702Z,9.50
2022-11-05T06:47:30.138Z,11.13
2022-11-05T06:49:57.410Z,10.13
2022-11-05T06:52:25.767Z,10.15
2022-11-05T06:54:52.128Z,10.48
2022-11-05T06:57:23.644Z,10.88
2022-11-05T06:59:54.556Z,10.98
2022-11-05T07:02:23.522Z,11.57
2022-11-05T07:04:52.096Z,10.65
2022-11-05T07:07:18.589Z,11.45
2022-11-05T07:09:44.981Z,11.10
2022-11-05T07:12:11.349Z,12.15
2022-11-05T07:14:41.938Z,11.15
2022-11-05T07:17:17.158Z,11.32
2022-11-05T07:19:44.198Z,11.93
2022-11-05T07:22:10.838Z,11.80
2022-11-05T07:24:37.293Z,12.75
2022-11-05T07:27:03.799Z,12.85
2022-11-05T07:29:31.244Z,11.57
2022-11-05T07:31:57.733Z,12.02
2022-11-05T07:34:27.365Z,11.48
2022-11-05T07:36:53.762Z,11.75
2022-11-05T07:39:20.253Z,12.75
2022-11-05T07:41:46.729Z,10.85
2022-11-05T07:44:14.439Z,11.73
2022-11-05T07:46:41.648Z,11.27
2022-11-05T07:49:07.980Z,10.98
2022-11-05T07:51:34.280Z,13.40
2022-11-05T07:54:00.726Z,11.57
2022-11-05T07:56:27.217Z,12.40
2022-11-05T07:58:53.668Z,11.75
2022-11-05T08:01:20.140Z,11.52
2022-11-05T08:03:46.744Z,11.25
2022-11-05T08:06:13.257Z,12.18
2022-11-05T08:08:40.770Z,12.10
2022-11-05T08:11:10.771Z,11.93
2022-11-05T08:13:37.470Z,11.77
2022-11-05T08:16:05.346Z,12.10
2022-11-05T08:21:01.696Z,10.00
2022-11-05T08:23:54.089Z,10.82
2022-11-05T08:26:20.601Z,11.10
2022-11-05T08:28:46.899Z,11.30
2022-11-05T08:31:15.456Z,11.07
2022-11-05T08:33:42.012Z,12.77
2022-11-05T08:36:08.398Z,11.43
2022-11-05T08:38:34.666Z,12.82
2022-11-05T08:41:01.069Z,12.38
2022-11-05T08:43:27.592Z,12.23
2022-11-05T08:45:55.040Z,12.00
2022-11-05T08:48:23.455Z,11.93
2022-11-05T08:50:50.921Z,11.48
2022-11-05T08:53:17.623Z,10.73
2022-11-05T08:55:44.390Z,11.93
2022-11-05T08:58:12.629Z,11.95
2022-11-05T09:00:39.321Z,11.77
2022-11-05T09:03:06.669Z,12.03
2022-11-05T09:05:37.989Z,12.00
2022-11-05T09:08:05.777Z,12.85
2022-11-05T09:10:32.320Z,11.50
2022-11-05T09:12:58.725Z,10.65
2022-11-05T09:15:25.103Z,11.63
2022-11-05T09:17:51.630Z,11.50
2022-11-05T09:20:18.000Z,11.60
2022-11-05T09:22:44.369Z,12.13
2022-11-05T09:25:11.861Z,11.32
2022-11-05T09:30:04.629Z,9.30
2022-11-05T09:32:31.517Z,10.60
2022-11-05T09:35:01.142Z,10.20
2022-11-05T09:37:29.703Z,10.45
2022-11-05T09:39:56.224Z,11.32
2022-11-05T09:42:25.254Z,10.80
2022-11-05T09:44:54.517Z,11.23
2022-11-05T09:47:24.750Z,10.32
2022-11-05T09:49:56.094Z,10.30
2022-11-05T09:52:23.635Z,9.65
2022-11-05T09:57:40.866Z,11.40
2022-11-05T10:00:16.909Z,10.65
2022-11-05T10:02:50.678Z,8.70
2022-11-05T10:05:19.715Z,10.25
2022-11-05T10:07:51.242Z,9.88
2022-11-05T10:10:24.873Z,9.13
2022-11-05T10:12:52.953Z,10.05
2022-11-05T10:15:23.959Z,9.13
2022-11-05T10:17:59.321Z,8.18
2022-11-05T10:20:35.994Z,9.73
2022-11-05T10:23:11.295Z,10.05
2022-11-05T10:25:39.875Z,9.35
2022-11-05T10:28:07.373Z,9.23
2022-11-05T10:33:02.285Z,9.40
2022-11-05T10:35:30.656Z,9.30
2022-11-05T10:37:57.312Z,9.85
2022-11-05T10:40:36.454Z,9.27
2022-11-05T10:43:10.531Z,8.95
2022-11-05T10:45:55.759Z,8.77
2022-11-05T10:48:35.279Z,8.32
2022-11-05T10:51:03.406Z,8.18
2022-11-05T10:53:35.162Z,6.88
2022-11-05T10:56:03.580Z,8.10
2022-11-05T10:58:31.139Z,6.85
2022-11-05T11:01:11.389Z,7.55
2022-11-05T11:03:40.177Z,7.07
2022-11-05T11:06:14.795Z,6.63
2022-11-05T11:08:43.811Z,7.82
2022-11-05T11:11:11.310Z,7.07
2022-11-05T11:13:51.924Z,7.00
2022-11-05T11:16:59.770Z,7.30
2022-11-05T11:19:26.164Z,6.60
2022-11-05T11:22:06.443Z,6.75
2022-11-05T11:24:45.632Z,6.70
2022-11-05T11:27:17.963Z,5.60
2022-11-05T11:29:49.511Z,5.35
2022-11-05T11:32:20.447Z,5.15
2022-11-05T11:34:52.392Z,5.82
2022-11-05T11:37:26.141Z,6.38
2022-11-05T11:39:55.870Z,6.07
2022-11-05T11:42:27.356Z,6.18
2022-11-05T11:44:53.954Z,6.30
2022-11-05T11:47:22.271Z,5.30
2022-11-05T11:49:54.134Z,5.38
2022-11-05T11:52:34.317Z,6.32
2022-11-05T11:55:16.946Z,5.55
2022-11-05T11:57:46.217Z,5.80
2022-11-05T12:00:12.938Z,6.05
2022-11-05T12:03:02.357Z,6.60
2022-11-05T12:05:28.857Z,6.25
2022-11-05T12:07:59.022Z,7.10
2022-11-05T12:10:34.206Z,6.50
2022-11-05T12:13:18.787Z,6.78
2022-11-05T12:15:48.267Z,6.90
2022-11-05T12:18:26.176Z,6.78
2022-11-05T12:20:57.860Z,7.90
2022-11-05T12:23:43.091Z,6.88
2022-11-05T12:26:15.826Z,6.57
2022-11-05T12:29:04.666Z,7.03
2022-11-05T12:31:50.149Z,7.10
2022-11-05T12:34:19.808Z,7.22
2022-11-05T12:36:55.454Z,7.22
2022-11-05T12:39:27.744Z,6.97
2022-11-05T12:42:01.007Z,7.13
2022-11-05T12:44:42.760Z,6.30
2022-11-05T12:47:28.081Z,6.82
2022-11-05T12:49:54.496Z,7.78
2022-11-05T12:52:41.712Z,6.63
2022-11-05T12:55:13.390Z,6.57
2022-11-05T12:57:41.445Z,6.85
2022-11-05T13:00:14.755Z,6.45
2022-11-05T13:02:41.156Z,6.30
2022-11-05T13:05:19.415Z,6.85
2022-11-05T13:07:56.387Z,6.30
2022-11-05T13:10:43.512Z,5.82
2022-11-05T13:13:32.442Z,5.97
2022-11-05T13:16:17.341Z,5.70
2022-11-05T13:18:49.561Z,6.18
2022-11-05T13:21:17.286Z,5.53
2022-11-05T13:23:46.432Z,5.60
2022-11-05T13:26:20.140Z,6.15
2022-11-05T13:29:05.315Z,5.35
2022-11-05T13:31:34.166Z,6.10
2022-11-05T13:34:04.410Z,5.85
2022-11-05T13:36:51.020Z,6.70
2022-11-05T13:39:31.410Z,5.75
2022-11-05T13:42:16.595Z,5.68
2022-11-05T13:44:55.296Z,5.60
2022-11-05T13:47:30.879Z,5.88
2022-11-05T13:50:18.259Z,6.30
2022-11-05T13:53:08.022Z,5.25
2022-11-05T13:55:47.412Z,5.78
2022-11-05T13:58:49.116Z,5.70
2022-11-05T14:01:25.407Z,5.60
2022-11-05T14:03:53.499Z,6.25
2022-11-05T14:06:31.269Z,6.32
2022-11-05T14:09:07.283Z,6.10
2022-11-05T14:11:35.772Z,5.85
2022-11-05T14:14:08.347Z,6.07
2022-11-05T14:16:47.441Z,5.68
2022-11-05T14:19:21.874Z,5.53
2022-11-05T14:21:55.683Z,6.32
2022-11-05T14:24:22.014Z,5.55
2022-11-05T14:27:02.400Z,5.43
2022-11-05T14:29:43.026Z,6.55
2022-11-05T14:32:25.598Z,6.13
2022-11-05T14:34:57.285Z,5.97
2022-11-05T14:37:26.948Z,6.95
2022-11-05T14:39:54.519Z,6.53
2022-11-05T14:42:30.653Z,6.68
2022-11-05T14:44:58.934Z,6.40
2022-11-05T14:47:28.131Z,6.32
2022-11-05T14:50:05.714Z,7.15
2022-11-05T14:52:32.285Z,6.47
2022-11-05T14:55:01.641Z,6.13
2022-11-05T14:57:43.364Z,7.38
2022-11-05T15:00:28.159Z,6.78
2022-11-05T15:02:59.128Z,7.10
2022-11-05T15:05:31.542Z,7.35
2022-11-05T15:08:00.758Z,6.95
2022-11-05T15:10:35.348Z,7.57
2022-11-05T15:13:06.204Z,6.95
2022-11-05T15:15:40.330Z,7.03
2022-11-05T15:18:26.981Z,6.85
2022-11-05T15:20:54.840Z,7.10
2022-11-05T15:23:22.475Z,6.30
2022-11-05T15:26:09.898Z,7.22
2022-11-05T15:28:44.743Z,6.72
2022-11-05T15:31:15.132Z,6.97
2022-11-05T15:33:42.162Z,6.60
2022-11-05T15:36:22.355Z,6.95
2022-11-05T15:39:15.167Z,6.95
2022-11-05T15:41:39.164Z,6.78
2022-11-05T15:44:05.598Z,7.50
2022-11-05T15:46:32.055Z,7.10
2022-11-05T15:48:59.753Z,6.50
2022-11-05T15:51:26.641Z,7.03
2022-11-05T15:56:56.942Z,7.38
2022-11-05T15:59:31.281Z,7.50
2022-11-05T16:02:05.564Z,7.95
2022-11-05T16:04:33.522Z,7.65
2022-11-05T16:07:06.466Z,8.45
2022-11-05T16:09:49.886Z,7.78
2022-11-05T16:12:24.096Z,7.47
2022-11-05T16:14:59.569Z,7.75
2022-11-05T16:17:31.138Z,8.20
2022-11-05T16:19:57.630Z,7.07
2022-11-05T16:22:43.728Z,7.50
2022-11-05T16:25:27.978Z,7.63
2022-11-05T16:27:54.786Z,6.68
2022-11-05T16:30:21.618Z,8.10
2022-11-05T16:32:48.505Z,7.05
2022-11-05T16:35:21.795Z,7.25
2022-11-05T16:37:52.102Z,6.45
2022-11-05T16:40:18.838Z,6.00
2022-11-05T16:42:48.338Z,6.45
2022-11-05T16:45:16.188Z,5.95
2022-11-05T16:47:43.302Z,6.78
2022-11-05T16:50:13.497Z,7.40
2022-11-05T16:52:42.372Z,6.65
2022-11-05T16:55:08.859Z,6.30
2022-11-05T16:57:35.243Z,7.05
2022-11-05T17:00:01.594Z,7.38
2022-11-05T17:02:28.481Z,7.20
2022-11-05T17:04:55.227Z,7.45
2022-11-05T17:07:21.605Z,7.35
2022-11-05T17:09:47.946Z,7.38
2022-11-05T17:12:14.654Z,7.05
2022-11-05T17:14:40.998Z,7.65
2022-11-05T17:17:07.332Z,6.90
2022-11-05T17:19:33.682Z,6.75
2022-11-05T17:21:59.972Z,7.05
2022-11-05T17:24:26.306Z,7.22
2022-11-05T17:26:52.730Z,6.70
2022-11-05T17:29:19.138Z,7.65
2022-11-05T17:31:45.524Z,6.93
2022-11-05T17:34:11.914Z,7.22
2022-11-05T17:36:38.286Z,7.35
2022-11-05T17:39:04.675Z,7.22
2022-11-05T17:41:31.041Z,6.75
2022-11-05T17:43:57.831Z,6.68
2022-11-05T17:46:24.625Z,7.13
2022-11-05T17:48:50.979Z,8.02
2022-11-05T17:51:19.614Z,6.90
2022-11-05T17:53:46.400Z,6.07
2022-11-05T17:56:13.345Z,6.40
2022-11-05T17:58:40.084Z,6.60
2022-11-05T18:01:07.787Z,6.32
2022-11-05T18:03:34.558Z,6.40
2022-11-05T18:06:04.748Z,6.20
2022-11-05T18:08:31.293Z,6.65
2022-11-05T18:10:57.693Z,6.77
2022-11-05T18:13:24.257Z,6.95
2022-11-05T18:15:54.365Z,6.77
2022-11-05T18:18:21.879Z,6.20
2022-11-05T18:23:14.924Z,6.55
2022-11-05T18:25:41.868Z,5.88
2022-11-05T18:28:08.460Z,6.05
2022-11-05T18:30:37.425Z,6.33
2022-11-05T18:33:04.808Z,6.82
2022-11-05T18:35:31.199Z,7.18
2022-11-05T18:37:57.635Z,6.25
2022-11-05T18:40:25.948Z,6.28
2022-11-05T18:42:52.379Z,5.82
2022-11-05T18:45:18.729Z,5.60
2022-11-05T18:47:45.119Z,5.45
2022-11-05T18:50:11.475Z,5.38
2022-11-05T18:52:38.900Z,5.70
2022-11-05T18:57:32.725Z,4.40
2022-11-05T18:59:59.107Z,4.90
2022-11-05T19:02:26.720Z,6.47
2022-11-05T19:05:26.709Z,4.90
2022-11-05T19:07:39.639Z,5.10
2022-11-05T19:10:07.495Z,4.60
2022-11-05T19:12:33.885Z,4.70
2022-11-05T19:15:02.767Z,5.28
2022-11-05T19:17:29.449Z,4.68
2022-11-05T19:19:55.788Z,5.80
2022-11-05T19:22:22.226Z,4.32
2022-11-05T19:24:48.642Z,4.80
2022-11-05T19:27:15.111Z,4.07
2022-11-05T19:29:41.477Z,4.05
2022-11-05T19:32:09.146Z,4.22
2022-11-05T19:34:35.712Z,4.38
2022-11-05T19:37:03.158Z,5.10
2022-11-05T19:42:01.970Z,4.30
2022-11-05T19:44:29.912Z,4.43
2022-11-05T19:46:56.284Z,4.35
2022-11-05T19:49:22.624Z,4.78
2022-11-05T19:51:48.887Z,4.72
2022-11-05T19:54:15.474Z,4.55
2022-11-05T19:56:42.818Z,4.80
2022-11-05T19:59:10.991Z,4.50
2022-11-05T20:01:37.658Z,5.05
2022-11-05T20:04:04.806Z,4.97
2022-11-05T20:06:33.327Z,5.15
2022-11-05T20:09:21.246Z,5.32
2022-11-05T20:11:48.447Z,5.53
2022-11-05T20:14:14.913Z,4.57
2022-11-05T20:16:42.958Z,4.97
2022-11-05T20:19:10.688Z,5.47
2022-11-05T20:21:38.303Z,4.68
2022-11-05T20:24:04.733Z,5.68
2022-11-05T20:26:31.784Z,5.38
2022-11-05T20:28:58.231Z,5.57
2022-11-05T20:31:24.612Z,4.90
2022-11-05T20:33:51.405Z,4.93
2022-11-05T20:36:19.013Z,5.13
2022-11-05T20:38:49.015Z,6.72
2022-11-05T20:41:16.181Z,4.57
2022-11-05T20:43:43.031Z,5.55
2022-11-05T20:46:11.938Z,5.20
2022-11-05T20:48:38.307Z,5.88
2022-11-05T20:51:05.881Z,5.30
2022-11-05T20:53:34.485Z,6.25
2022-11-05T20:56:06.557Z,4.93
2022-11-05T20:58:34.567Z,5.97
2022-11-05T21:01:00.895Z,4.78
2022-11-05T21:03:27.271Z,6.40
2022-11-05T21:05:56.362Z,6.78
2022-11-05T21:08:23.947Z,5.30
2022-11-05T21:10:51.506Z,5.95
2022-11-05T21:13:18.273Z,5.03
2022-11-05T21:15:50.231Z,6.03
2022-11-05T21:18:18.007Z,5.70
2022-11-05T21:20:44.760Z,5.97
2022-11-05T21:23:11.334Z,6.47
2022-11-05T21:25:41.278Z,6.73
2022-11-05T21:28:08.211Z,6.28
2022-11-05T21:30:36.259Z,6.82
2022-11-05T21:33:03.495Z,6.43
2022-11-05T21:35:29.762Z,6.03
2022-11-05T21:37:56.108Z,5.93
2022-11-05T21:40:22.629Z,5.55
2022-11-05T21:42:48.927Z,6.20
2022-11-05T21:45:15.476Z,6.53
2022-11-05T21:47:42.782Z,6.10
2022-11-05T21:50:09.117Z,5.72
2022-11-05T21:52:54.364Z,6.43
2022-11-05T21:55:40.352Z,5.80
2022-11-05T21:58:29.679Z,5.88
2022-11-05T22:00:56.033Z,5.43
2022-11-05T22:03:22.366Z,5.63
2022-11-05T22:05:48.692Z,6.43
2022-11-05T22:08:15.431Z,6.00
2022-11-05T22:10:41.995Z,6.53
2022-11-05T22:13:08.345Z,5.80
2022-11-05T22:15:34.656Z,6.93
2022-11-05T22:18:01.065Z,6.32
2022-11-05T22:20:27.351Z,6.15
2022-11-05T22:22:53.842Z,5.97
2022-11-05T22:25:20.163Z,6.97
2022-11-05T22:27:47.508Z,7.07
2022-11-05T22:30:14.349Z,6.10
2022-11-05T22:32:40.638Z,6.15
2022-11-05T22:35:07.165Z,6.35
2022-11-05T22:37:33.461Z,7.00
2022-11-05T22:39:59.802Z,6.85
2022-11-05T22:42:26.242Z,6.75
2022-11-05T22:44:52.896Z,6.32
2022-11-05T22:47:19.182Z,6.37
2022-11-05T22:49:46.012Z,6.55
2022-11-05T22:52:13.290Z,6.28
2022-11-05T22:54:39.706Z,6.35
2022-11-05T22:57:06.054Z,6.78
2022-11-05T22:59:32.813Z,6.53
2022-11-05T23:01:59.527Z,6.88
2022-11-05T23:04:27.333Z,7.03
2022-11-05T23:07:12.451Z,6.07
2022-11-05T23:10:17.692Z,6.53
2022-11-05T23:12:44.611Z,7.07
2022-11-05T23:15:31.073Z,6.55
2022-11-05T23:18:16.787Z,6.97
2022-11-05T23:21:01.806Z,6.40
2022-11-05T23:23:46.585Z,7.00
2022-11-05T23:26:35.830Z,6.85
2022-11-05T23:29:02.115Z,6.88
2022-11-05T23:31:47.373Z,6.38
2022-11-05T23:34:13.698Z,6.53
2022-11-05T23:36:58.787Z,6.68
2022-11-05T23:39:25.112Z,6.05
2022-11-05T23:42:10.182Z,6.63
2022-11-05T23:44:55.004Z,6.57
2022-11-05T23:47:40.063Z,6.95
2022-11-05T23:50:06.413Z,5.95
2022-11-05T23:52:33.036Z,6.27
2022-11-05T23:54:59.283Z,6.35
2022-11-05T23:57:25.604Z,5.90
2022-11-05T23:59:51.924Z,5.82
